Weather at Dabo Airport

Public forecast

Using degrees Celsius for public forecast. Weather courtesy of forecast.io.

Closest aviation weather report (METAR) to Dabo Airport

Closest report is Raja Haji Fisabilillah International Airport, 84.2 nm (156.0 km) N.

2024/05/24 08:00 (retrieved 22 minutes ago)

WIDN 240800Z 24003KT 9999 SCT015 28/26 Q1006 NOSIG

Closest aviation forecast (TAF) to Dabo Airport

Closest forecast is Hang Nadim International Airport, 100.0 nm (185.1 km) NNW.

2024/05/24 06:00 (retrieved 2 hours ago)

TAF WIDD 240500Z 2406/2506 16006KT 9000 SCT014 TEMPO 2406/2408 5000 RA